KSBN/SBN METAR and TAF weather

Enter ICAO airport designator
Station Type Date Time Source
KSBN METAR 2019/11/14 03:54 UTC NOAA

KSBN 140354Z 22009KT 10SM SCT040 OVC050 M03/M08 A3011 RMK AO2 SNB0259E34 SLP209 P0000 T10331078


Station Type Date Time Source
KSBN Decoded METAR 2019/11/14 03:54 UTC NOAA

SOUTH BEND REGIONAL AIRPORT, IN, United States (KSBN) 41-42N 086-19W 237M
Nov 13, 2019 - 10:54 PM EST / 2019.11.14 0354 UTC
Wind: from the SW (220 degrees) at 10 MPH (9 KT):0
Visibility: 10 mile(s):0
Sky conditions: overcast
Precipitation last hour: A trace
Temperature: 26.1 F (-3.3 C)
Windchill: 15 F (-9 C):1
Dew Point: 18.0 F (-7.8 C)
Relative Humidity: 70%
Pressure (altimeter): 30.11 in. Hg (1019 hPa)
ob: KSBN 140354Z 22009KT 10SM SCT040 OVC050 M03/M08 A3011 RMK AO2 SNB0259E34 SLP209 P0000 T10331078
cycle: 4

Station Type Date Time Source
KSBN TAF 2019/11/13 18:22 UTC NOAA

TAF KSBN 131720Z 1318/1418 19015G25KT P6SM BKN150
FM140000 21008KT P6SM OVC060
FM141300 24005KT P6SM BKN040

Example: see airport list